createdAt,value
2022-11-16T00:02:22.009Z,78.52
2022-11-16T00:05:28.104Z,80.25
2022-11-16T00:08:31.034Z,79.01
2022-11-16T00:11:33.253Z,79.60
2022-11-16T00:14:35.393Z,78.60
2022-11-16T00:17:37.261Z,77.36
2022-11-16T00:20:39.393Z,78.06
2022-11-16T00:23:41.206Z,76.95
2022-11-16T00:26:43.294Z,78.18
2022-11-16T00:29:45.126Z,78.81
2022-11-16T00:32:46.942Z,76.83
2022-11-16T00:35:48.732Z,75.07
2022-11-16T00:38:51.988Z,77.39
2022-11-16T00:41:53.811Z,73.19
2022-11-16T00:44:55.610Z,79.07
2022-11-16T00:48:00.487Z,79.22
2022-11-16T00:51:02.677Z,80.21
2022-11-16T00:54:05.293Z,79.70
2022-11-16T00:57:07.068Z,83.34
2022-11-16T01:00:09.801Z,82.69
2022-11-16T01:03:11.719Z,83.54
2022-11-16T01:06:14.059Z,84.68
2022-11-16T01:09:15.820Z,83.14
2022-11-16T01:12:17.678Z,82.67
2022-11-16T01:15:20.157Z,83.61
2022-11-16T01:18:21.983Z,82.70
2022-11-16T01:21:24.214Z,81.26
2022-11-16T01:24:26.358Z,80.15
2022-11-16T01:27:29.022Z,84.09
2022-11-16T01:30:30.882Z,82.53
2022-11-16T01:33:32.694Z,82.22
2022-11-16T01:36:36.697Z,81.41
2022-11-16T01:39:38.526Z,83.21
2022-11-16T01:42:40.736Z,83.82
2022-11-16T01:45:42.631Z,84.77
2022-11-16T01:48:44.454Z,84.12
2022-11-16T01:51:47.544Z,82.34
2022-11-16T01:54:50.149Z,83.07
2022-11-16T01:57:51.973Z,84.86
2022-11-16T02:00:53.820Z,83.92
2022-11-16T02:03:55.680Z,85.37
2022-11-16T02:06:57.478Z,84.78
2022-11-16T02:10:10.761Z,85.53
2022-11-16T02:13:19.266Z,84.35
2022-11-16T02:16:21.087Z,85.75
2022-11-16T02:19:38.011Z,85.52
2022-11-16T02:22:53.128Z,83.20
2022-11-16T02:26:13.808Z,84.77
2022-11-16T02:29:38.622Z,85.74
2022-11-16T02:32:40.348Z,80.08
2022-11-16T02:35:42.147Z,82.36
2022-11-16T02:38:46.554Z,84.29
2022-11-16T02:41:48.371Z,82.49
2022-11-16T02:44:50.351Z,84.88
2022-11-16T02:47:52.396Z,83.47
2022-11-16T02:50:54.315Z,82.18
2022-11-16T02:54:00.396Z,84.78
2022-11-16T02:57:02.189Z,84.27
2022-11-16T03:00:04.701Z,82.58
2022-11-16T03:03:12.502Z,82.19
2022-11-16T03:06:16.801Z,81.80
2022-11-16T03:09:19.663Z,81.24
2022-11-16T03:12:24.384Z,82.43
2022-11-16T03:15:26.294Z,83.95
2022-11-16T03:18:29.062Z,85.08
2022-11-16T03:21:33.245Z,83.81
2022-11-16T03:24:35.029Z,78.79
2022-11-16T03:27:59.877Z,80.72
2022-11-16T03:31:03.321Z,82.18
2022-11-16T03:34:06.797Z,83.42
2022-11-16T03:37:08.622Z,81.70
2022-11-16T03:40:10.535Z,83.90
2022-11-16T03:43:12.312Z,82.66
2022-11-16T03:46:14.365Z,82.14
2022-11-16T03:49:16.280Z,82.04
2022-11-16T03:52:18.364Z,80.86
2022-11-16T03:55:20.184Z,83.98
2022-11-16T03:58:21.987Z,84.51
2022-11-16T04:01:23.834Z,83.14
2022-11-16T04:04:44.468Z,81.18
2022-11-16T04:08:06.352Z,81.32
2022-11-16T04:11:30.711Z,80.00
2022-11-16T04:14:51.395Z,81.94
2022-11-16T04:18:11.860Z,82.33
2022-11-16T04:21:36.464Z,82.30
2022-11-16T04:24:38.770Z,80.92
2022-11-16T04:27:58.925Z,80.37
2022-11-16T04:31:19.654Z,80.51
2022-11-16T04:34:40.063Z,79.74
2022-11-16T04:37:52.690Z,79.48
2022-11-16T04:40:54.635Z,79.10
2022-11-16T04:43:57.300Z,78.38
2022-11-16T04:47:08.212Z,79.90
2022-11-16T04:50:10.181Z,80.74
2022-11-16T04:53:12.001Z,79.64
2022-11-16T04:56:13.848Z,82.25
2022-11-16T04:59:15.747Z,81.91
2022-11-16T05:02:17.613Z,81.40
2022-11-16T05:05:19.517Z,83.74
2022-11-16T05:08:21.389Z,85.96
2022-11-16T05:11:23.798Z,82.17
2022-11-16T05:14:25.652Z,78.64
2022-11-16T05:17:27.951Z,76.67
2022-11-16T05:20:48.641Z,80.27
2022-11-16T05:24:09.057Z,82.80
2022-11-16T05:27:12.402Z,82.54
2022-11-16T05:30:14.188Z,83.78
2022-11-16T05:33:17.917Z,82.70
2022-11-16T05:36:19.728Z,81.40
2022-11-16T05:39:21.737Z,83.00
2022-11-16T05:42:23.622Z,86.10
2022-11-16T05:45:25.410Z,84.14
2022-11-16T05:48:27.264Z,81.57
2022-11-16T05:51:29.260Z,80.39
2022-11-16T05:54:31.420Z,81.84
2022-11-16T05:57:33.509Z,82.51
2022-11-16T06:00:35.326Z,81.30
2022-11-16T06:03:37.294Z,81.14
2022-11-16T06:06:39.394Z,81.14
2022-11-16T06:09:41.322Z,78.91
2022-11-16T06:12:43.149Z,83.51
2022-11-16T06:15:50.390Z,82.48
2022-11-16T06:18:52.241Z,79.83
2022-11-16T06:21:54.046Z,79.17
2022-11-16T06:24:55.962Z,82.39
2022-11-16T06:27:58.230Z,81.00
2022-11-16T06:31:00.094Z,78.07
2022-11-16T06:34:01.929Z,79.47
2022-11-16T06:37:05.556Z,78.07
2022-11-16T06:40:07.718Z,78.55
2022-11-16T06:43:09.571Z,84.76
2022-11-16T06:46:11.458Z,80.80
2022-11-16T06:49:13.419Z,82.57
2022-11-16T06:52:15.244Z,76.33
2022-11-16T06:55:17.156Z,76.57
2022-11-16T06:58:18.965Z,81.77
2022-11-16T07:01:20.947Z,77.43
2022-11-16T07:04:22.972Z,77.40
2022-11-16T07:07:24.818Z,77.97
2022-11-16T07:10:26.644Z,76.22
2022-11-16T07:13:28.441Z,79.90
2022-11-16T07:16:30.359Z,79.02
2022-11-16T07:19:32.318Z,81.23
2022-11-16T07:22:34.159Z,77.95
2022-11-16T07:25:36.023Z,74.87
2022-11-16T07:28:39.980Z,79.94
2022-11-16T07:31:45.493Z,75.94
2022-11-16T07:34:47.375Z,73.76
2022-11-16T07:37:49.253Z,80.10
2022-11-16T07:40:51.183Z,81.92
2022-11-16T07:43:54.528Z,79.57
2022-11-16T07:46:56.680Z,80.62
2022-11-16T07:49:58.568Z,82.41
2022-11-16T07:53:00.404Z,81.80
2022-11-16T07:56:02.381Z,79.32
2022-11-16T07:59:06.003Z,76.13
2022-11-16T08:02:09.558Z,81.57
2022-11-16T08:05:11.759Z,77.87
2022-11-16T08:08:13.796Z,81.82
2022-11-16T08:11:15.895Z,83.23
2022-11-16T08:14:19.409Z,83.85
2022-11-16T08:17:21.309Z,83.74
2022-11-16T08:20:25.959Z,83.50
2022-11-16T08:23:31.154Z,79.20
2022-11-16T08:26:33.013Z,79.67
2022-11-16T08:29:34.819Z,79.50
2022-11-16T08:32:36.805Z,77.53
2022-11-16T08:35:38.666Z,75.32
2022-11-16T08:38:40.768Z,75.86
2022-11-16T08:41:44.330Z,80.47
2022-11-16T08:44:47.322Z,79.90
2022-11-16T08:47:49.198Z,78.06
2022-11-16T08:51:15.870Z,78.37
2022-11-16T08:54:13.018Z,74.84
2022-11-16T08:57:14.857Z,81.83
2022-11-16T09:00:17.152Z,77.21
2022-11-16T09:03:19.064Z,79.19
2022-11-16T09:06:21.119Z,76.28
2022-11-16T09:09:23.375Z,77.15
2022-11-16T09:12:25.462Z,77.45
2022-11-16T09:15:28.148Z,73.29
2022-11-16T09:18:30.600Z,78.46
2022-11-16T09:21:32.735Z,74.73
2022-11-16T09:24:34.722Z,73.03
2022-11-16T09:27:37.025Z,74.30
2022-11-16T09:30:38.867Z,75.94
2022-11-16T09:33:40.853Z,77.38
2022-11-16T09:36:42.925Z,79.30
2022-11-16T09:39:44.852Z,77.89
2022-11-16T09:42:52.907Z,76.04
2022-11-16T09:45:54.852Z,80.18
2022-11-16T09:48:56.853Z,81.65
2022-11-16T09:52:00.495Z,77.98
2022-11-16T09:55:04.081Z,79.34
2022-11-16T09:58:08.310Z,77.30
2022-11-16T10:01:25.727Z,80.74
2022-11-16T10:04:38.387Z,75.67
2022-11-16T10:07:50.550Z,76.86
2022-11-16T10:10:55.434Z,81.15
2022-11-16T10:14:05.521Z,81.59
2022-11-16T10:17:26.194Z,80.91
2022-11-16T10:20:30.813Z,79.98
2022-11-16T10:23:51.917Z,75.55
2022-11-16T10:26:55.256Z,76.62
2022-11-16T10:30:00.151Z,75.55
2022-11-16T10:33:10.954Z,75.49
2022-11-16T10:36:14.020Z,72.70
2022-11-16T10:39:17.170Z,75.51
2022-11-16T10:42:21.204Z,77.87
2022-11-16T10:45:34.045Z,76.61
2022-11-16T10:48:42.562Z,75.69
2022-11-16T10:51:44.438Z,74.10
2022-11-16T10:54:48.619Z,72.08
2022-11-16T10:57:58.772Z,75.97
2022-11-16T11:01:00.830Z,76.33
2022-11-16T11:04:11.888Z,74.46
2022-11-16T11:07:24.677Z,78.87
2022-11-16T11:10:34.348Z,76.48
2022-11-16T11:13:36.609Z,73.89
2022-11-16T11:16:38.883Z,76.21
2022-11-16T11:19:41.075Z,80.48
2022-11-16T11:22:56.170Z,77.77
2022-11-16T11:25:58.718Z,81.97
2022-11-16T11:29:00.677Z,77.02
2022-11-16T11:32:14.620Z,79.39
2022-11-16T11:35:25.683Z,77.07
2022-11-16T11:38:27.533Z,74.50
2022-11-16T11:41:32.878Z,76.85
2022-11-16T11:44:37.819Z,77.46
2022-11-16T11:48:00.267Z,75.56
2022-11-16T11:51:14.173Z,75.32
2022-11-16T11:54:19.039Z,77.71
2022-11-16T11:57:22.188Z,79.80
2022-11-16T12:00:26.376Z,77.07
2022-11-16T12:03:46.449Z,77.01
2022-11-16T12:07:00.740Z,78.36
2022-11-16T12:10:05.867Z,80.21
2022-11-16T12:13:26.502Z,78.41
2022-11-16T12:16:28.382Z,78.65
2022-11-16T12:19:36.274Z,74.98
2022-11-16T12:23:02.600Z,76.81
2022-11-16T12:26:11.761Z,75.17
2022-11-16T12:29:29.219Z,76.36
2022-11-16T12:32:54.432Z,75.16
2022-11-16T12:36:03.583Z,76.00
2022-11-16T12:39:08.686Z,74.23
2022-11-16T12:42:13.642Z,73.57
2022-11-16T12:45:29.101Z,76.03
2022-11-16T12:49:00.428Z,74.83
2022-11-16T12:52:06.239Z,76.64
2022-11-16T12:58:45.297Z,75.17
2022-11-16T13:02:05.298Z,74.68
2022-11-16T13:05:12.841Z,78.27
2022-11-16T13:08:17.239Z,75.62
2022-11-16T13:11:19.330Z,74.61
2022-11-16T13:14:24.522Z,74.33
2022-11-16T13:17:31.413Z,73.61
2022-11-16T13:20:36.051Z,75.27
2022-11-16T13:23:46.294Z,79.31
2022-11-16T13:26:56.744Z,77.51
2022-11-16T13:30:16.132Z,79.98
2022-11-16T13:33:27.861Z,79.07
2022-11-16T13:36:32.923Z,74.66
2022-11-16T13:39:52.802Z,75.25
2022-11-16T13:42:57.721Z,74.74
2022-11-16T13:45:59.658Z,77.55
2022-11-16T13:49:01.585Z,80.41
2022-11-16T13:52:22.783Z,82.35
2022-11-16T13:55:30.042Z,79.66
2022-11-16T13:58:32.098Z,78.77
2022-11-16T14:01:53.177Z,80.26
2022-11-16T14:04:56.208Z,77.50
2022-11-16T14:07:58.028Z,74.93
2022-11-16T14:11:00.139Z,77.98
2022-11-16T14:14:05.864Z,80.00
2022-11-16T14:17:07.730Z,76.76
2022-11-16T14:20:10.638Z,75.47
2022-11-16T14:23:18.592Z,74.82
2022-11-16T14:26:26.499Z,78.06
2022-11-16T14:29:47.151Z,81.83
2022-11-16T14:32:55.315Z,79.80
2022-11-16T14:35:57.230Z,75.99
2022-11-16T14:39:00.816Z,76.68
2022-11-16T14:42:18.809Z,76.64
2022-11-16T14:45:24.860Z,80.10
2022-11-16T14:48:26.697Z,81.59
2022-11-16T14:51:32.235Z,79.22
2022-11-16T14:54:38.665Z,80.16
2022-11-16T14:57:40.520Z,80.85
2022-11-16T15:00:42.494Z,82.29
2022-11-16T15:03:54.739Z,81.29
2022-11-16T15:06:57.888Z,82.20
2022-11-16T15:09:59.812Z,82.76
2022-11-16T15:13:01.727Z,82.54
2022-11-16T15:16:16.971Z,83.42
2022-11-16T15:19:18.912Z,82.08
2022-11-16T15:22:20.763Z,79.99
2022-11-16T15:25:24.170Z,80.35
2022-11-16T15:28:26.865Z,80.56
2022-11-16T15:31:29.819Z,79.78
2022-11-16T15:34:32.792Z,79.65
2022-11-16T15:37:34.831Z,78.67
2022-11-16T15:40:36.706Z,81.40
2022-11-16T15:43:45.443Z,82.76
2022-11-16T15:46:57.374Z,80.02
2022-11-16T15:49:59.215Z,81.87
2022-11-16T15:53:01.027Z,84.44
2022-11-16T15:56:03.577Z,81.50
2022-11-16T15:59:12.000Z,80.79
2022-11-16T16:02:18.163Z,80.68
2022-11-16T16:05:23.971Z,81.80
2022-11-16T16:08:27.731Z,79.21
2022-11-16T16:11:29.605Z,85.28
2022-11-16T16:14:31.476Z,82.93
2022-11-16T16:17:33.417Z,80.63
2022-11-16T16:20:35.256Z,79.17
2022-11-16T16:23:44.280Z,79.93
2022-11-16T16:26:46.146Z,81.39
2022-11-16T16:29:48.776Z,84.80
2022-11-16T16:32:50.667Z,85.73
2022-11-16T16:35:52.604Z,83.48
2022-11-16T16:38:54.579Z,82.17
2022-11-16T16:41:56.446Z,80.64
2022-11-16T16:44:59.027Z,84.82
2022-11-16T16:48:00.988Z,79.91
2022-11-16T16:51:02.864Z,82.33
2022-11-16T16:54:04.672Z,83.65
2022-11-16T16:57:06.516Z,85.38
2022-11-16T17:00:09.749Z,86.05
2022-11-16T17:03:11.699Z,85.67
2022-11-16T17:06:14.013Z,85.85
2022-11-16T17:09:15.898Z,82.57
2022-11-16T17:12:17.765Z,81.63
2022-11-16T17:15:19.776Z,84.84
2022-11-16T17:18:22.016Z,83.45
2022-11-16T17:21:24.014Z,87.20
2022-11-16T17:24:25.873Z,86.74
2022-11-16T17:27:27.730Z,85.11
2022-11-16T17:30:29.732Z,85.30
2022-11-16T17:33:35.264Z,86.89
2022-11-16T17:36:37.331Z,84.27
2022-11-16T17:39:39.842Z,84.63
2022-11-16T17:42:43.122Z,87.03
2022-11-16T17:45:44.925Z,87.71
2022-11-16T17:48:47.398Z,85.09
2022-11-16T17:51:49.313Z,84.85
2022-11-16T17:54:51.126Z,82.50
2022-11-16T17:57:52.972Z,80.58
2022-11-16T18:00:54.887Z,84.06
2022-11-16T18:03:56.842Z,83.75
2022-11-16T18:07:00.566Z,82.29
2022-11-16T18:10:02.513Z,83.76
2022-11-16T18:13:04.994Z,83.08
2022-11-16T18:16:08.717Z,86.63
2022-11-16T18:19:14.562Z,85.80
2022-11-16T18:22:16.399Z,86.94
2022-11-16T18:25:18.231Z,86.43
2022-11-16T18:28:20.032Z,87.13
2022-11-16T18:31:22.543Z,85.15
2022-11-16T18:34:24.617Z,84.12
2022-11-16T18:37:26.467Z,83.44
2022-11-16T18:40:28.965Z,87.73
2022-11-16T18:43:30.884Z,84.97
2022-11-16T18:46:32.896Z,81.47
2022-11-16T18:49:34.755Z,86.22
2022-11-16T18:52:36.562Z,83.29
2022-11-16T18:55:38.534Z,83.85
2022-11-16T18:58:55.863Z,85.61
2022-11-16T19:01:57.681Z,82.01
2022-11-16T19:04:59.478Z,84.53
2022-11-16T19:08:01.309Z,83.91
2022-11-16T19:11:06.587Z,84.65
2022-11-16T19:14:08.540Z,82.98
2022-11-16T19:17:10.409Z,83.30
2022-11-16T19:20:12.555Z,82.54
2022-11-16T19:23:14.377Z,80.86
2022-11-16T19:26:17.066Z,79.40
2022-11-16T19:29:19.069Z,81.79
2022-11-16T19:32:20.868Z,85.20
2022-11-16T19:35:22.740Z,85.00
2022-11-16T19:38:24.568Z,83.00
2022-11-16T19:41:26.851Z,82.23
2022-11-16T19:44:31.011Z,80.96
2022-11-16T19:47:32.832Z,83.36
2022-11-16T19:50:35.228Z,83.86
2022-11-16T19:53:37.494Z,83.11
2022-11-16T19:56:39.672Z,87.67
2022-11-16T19:59:41.461Z,86.85
2022-11-16T20:02:43.290Z,83.37
2022-11-16T20:05:45.069Z,86.88
2022-11-16T20:08:50.626Z,89.38
2022-11-16T20:11:52.450Z,86.66
2022-11-16T20:14:54.307Z,86.31
2022-11-16T20:17:56.103Z,90.03
2022-11-16T20:21:07.295Z,85.76
2022-11-16T20:24:13.330Z,83.57
2022-11-16T20:27:15.155Z,82.04
2022-11-16T20:30:17.006Z,84.43
2022-11-16T20:33:19.050Z,82.40
2022-11-16T20:36:22.917Z,81.13
2022-11-16T20:39:24.801Z,82.99
2022-11-16T20:42:26.664Z,83.90
2022-11-16T20:45:28.545Z,83.42
2022-11-16T20:48:30.367Z,86.47
2022-11-16T20:51:32.229Z,82.76
2022-11-16T20:54:34.166Z,82.32
2022-11-16T20:57:36.009Z,81.68
2022-11-16T21:00:37.836Z,82.71
2022-11-16T21:03:39.911Z,80.00
2022-11-16T21:06:41.753Z,78.70
2022-11-16T21:10:02.251Z,78.66
2022-11-16T21:13:23.174Z,81.32
2022-11-16T21:16:25.269Z,82.95
2022-11-16T21:19:27.142Z,79.69
2022-11-16T21:22:32.314Z,81.61
2022-11-16T21:25:34.792Z,79.75
2022-11-16T21:28:36.772Z,81.05
2022-11-16T21:31:38.593Z,83.31
2022-11-16T21:34:40.467Z,80.82
2022-11-16T21:37:42.294Z,80.66
2022-11-16T21:40:44.153Z,79.40
2022-11-16T21:43:46.062Z,79.58
2022-11-16T21:46:47.902Z,79.73
2022-11-16T21:50:16.954Z,79.64
2022-11-16T21:53:11.522Z,80.65
2022-11-16T21:56:17.229Z,79.98
2022-11-16T21:59:19.048Z,79.42
2022-11-16T22:02:20.873Z,80.96
2022-11-16T22:05:41.574Z,78.60
2022-11-16T22:08:43.363Z,78.84
2022-11-16T22:11:45.200Z,78.15
2022-11-16T22:14:46.986Z,79.14
2022-11-16T22:17:48.784Z,79.85
2022-11-16T22:20:50.605Z,80.88
2022-11-16T22:23:52.417Z,80.65
2022-11-16T22:26:54.288Z,80.86
2022-11-16T22:29:56.114Z,78.61
2022-11-16T22:32:57.968Z,75.18
2022-11-16T22:35:59.823Z,75.26
2022-11-16T22:39:02.151Z,77.92
2022-11-16T22:42:04.428Z,77.77
2022-11-16T22:45:06.402Z,76.51
2022-11-16T22:48:08.295Z,76.63
2022-11-16T22:51:22.318Z,74.95
2022-11-16T22:54:28.460Z,74.48
2022-11-16T22:57:30.680Z,76.32
2022-11-16T23:00:37.514Z,77.45
2022-11-16T23:03:42.690Z,74.19
2022-11-16T23:06:44.535Z,71.61
2022-11-16T23:09:46.331Z,69.79
2022-11-16T23:13:06.864Z,71.09
2022-11-16T23:16:08.798Z,72.38
2022-11-16T23:19:30.816Z,75.40
2022-11-16T23:22:51.152Z,74.05
2022-11-16T23:26:11.574Z,74.20
2022-11-16T23:29:13.375Z,72.52
2022-11-16T23:32:15.189Z,68.54
2022-11-16T23:35:17.221Z,68.65
2022-11-16T23:38:19.028Z,67.96
2022-11-16T23:41:39.654Z,68.39
2022-11-16T23:44:41.707Z,69.93
2022-11-16T23:47:43.495Z,68.08
2022-11-16T23:50:45.615Z,69.05
2022-11-16T23:53:47.428Z,71.31
2022-11-16T23:56:49.244Z,71.44
2022-11-16T23:59:51.060Z,71.50
